Time;durP1;ratioP1;P1;durP2;ratioP2;P2;SDS_P1;SDS_P2;PMS_P1;PMS_P2;Temp;Humidity;BMP_temperature;BMP_pressure;BME280_temperature;BME280_humidity;BME280_pressure;Samples;Min_cycle;Max_cycle;Signal;HPM_P1;HPM_P2
2023/01/14 00:02:14;;;;;;;;;;;10.30;99.90;;;;;;4995042;28;19910;-74
2023/01/14 00:04:41;;;;;;;;;;;10.30;99.90;;;;;;4994672;28;19948;-74
2023/01/14 00:07:06;;;;;;;;;;;10.30;99.90;;;;;;4994656;28;19917;-72
2023/01/14 00:09:32;;;;;;;;;;;10.30;99.90;;;;;;4994672;28;19914;-74
2023/01/14 00:11:57;;;;;;;;;;;10.30;99.90;;;;;;4994902;28;20382;-77
2023/01/14 00:14:30;;;;;;;;;;;10.30;99.90;;;;;;4994212;28;19914;-76
2023/01/14 00:16:56;;;;;;;;;;;10.30;99.90;;;;;;4993121;28;19916;-74
2023/01/14 00:19:22;;;;;;;;;;;10.30;99.90;;;;;;4994117;28;19909;-74
2023/01/14 00:21:48;;;;;;;;;;;10.20;99.90;;;;;;4994425;28;19916;-71
2023/01/14 00:24:14;;;;;;;;;;;10.20;99.90;;;;;;4994102;28;19917;-72
2023/01/14 00:26:40;;;;;;;;;;;10.20;99.90;;;;;;4994487;28;19910;-72
2023/01/14 00:29:06;;;;;;;;;;;10.30;99.90;;;;;;4994693;28;19964;-75
2023/01/14 00:31:32;;;;;;;;;;;10.30;99.90;;;;;;4994691;28;20318;-75
2023/01/14 00:33:59;;;;;;;;;;;10.30;99.90;;;;;;4994326;28;19921;-72
2023/01/14 00:36:25;;;;;;;;;;;10.30;99.90;;;;;;4994588;28;19925;-77
2023/01/14 00:38:51;;;;;;;;;;;10.30;99.90;;;;;;4993050;28;19973;-75
2023/01/14 00:41:18;;;;;;;;;;;10.30;99.90;;;;;;4994578;28;20377;-74
2023/01/14 00:43:45;;;;;;;;;;;10.20;99.90;;;;;;4994274;28;19909;-74
2023/01/14 00:46:12;;;;;;;;;;;10.10;99.90;;;;;;4994845;28;19921;-76
2023/01/14 00:48:38;;;;;;;;;;;10.10;99.90;;;;;;4994219;28;19913;-78
2023/01/14 00:51:04;;;;;;;;;;;10.20;99.90;;;;;;4992952;28;19910;-73
2023/01/14 00:53:29;;;;;;;;;;;10.20;99.90;;;;;;4994196;28;19913;-76
2023/01/14 00:55:55;;;;;;;;;;;10.20;99.90;;;;;;4992836;28;19921;-75
2023/01/14 00:58:21;;;;;;;;;;;10.20;99.90;;;;;;4994218;28;19920;-75
2023/01/14 01:00:46;;;;;;;;;;;10.20;99.90;;;;;;4994215;28;19916;-74
2023/01/14 01:03:12;;;;;;;;;;;10.20;99.90;;;;;;4994126;28;19938;-71
2023/01/14 01:05:38;;;;;;;;;;;10.10;99.90;;;;;;4994374;28;19910;-75
2023/01/14 01:08:04;;;;;;;;;;;10.10;99.90;;;;;;4994102;28;19909;-74
2023/01/14 01:10:30;;;;;;;;;;;10.10;99.90;;;;;;4994105;28;20301;-72
2023/01/14 01:12:55;;;;;;;;;;;10.10;99.90;;;;;;4994094;28;19910;-73
2023/01/14 01:15:21;;;;;;;;;;;10.10;99.90;;;;;;4993912;28;19920;-74
2023/01/14 01:17:47;;;;;;;;;;;10.10;99.90;;;;;;4994014;28;19910;-72
2023/01/14 01:20:12;;;;;;;;;;;10.10;99.90;;;;;;4993893;28;19910;-72
2023/01/14 01:22:38;;;;;;;;;;;10.00;99.90;;;;;;4994032;28;19910;-75
2023/01/14 01:25:03;;;;;;;;;;;10.00;99.90;;;;;;4994239;28;19913;-75
2023/01/14 01:27:29;;;;;;;;;;;9.90;99.90;;;;;;4993870;28;20293;-75
2023/01/14 01:29:54;;;;;;;;;;;9.90;99.90;;;;;;4993882;28;19910;-76
2023/01/14 01:32:20;;;;;;;;;;;9.90;99.90;;;;;;4997186;28;20068;-74
2023/01/14 01:34:45;;;;;;;;;;;9.90;99.90;;;;;;4997432;28;20345;-76
2023/01/14 01:37:11;;;;;;;;;;;9.80;99.90;;;;;;4997485;28;19956;-76
2023/01/14 01:39:36;;;;;;;;;;;9.80;99.90;;;;;;4997707;28;20004;-75
2023/01/14 01:42:02;;;;;;;;;;;9.80;99.90;;;;;;4997325;28;19910;-72
2023/01/14 01:44:27;;;;;;;;;;;9.80;99.90;;;;;;4997335;28;19909;-74
2023/01/14 01:46:53;;;;;;;;;;;9.80;99.90;;;;;;4997290;28;20359;-79
2023/01/14 01:49:21;;;;;;;;;;;9.80;99.90;;;;;;4997271;28;19910;-77
2023/01/14 01:51:51;;;;;;;;;;;9.80;99.90;;;;;;4997472;28;20259;-77
2023/01/14 01:54:19;;;;;;;;;;;9.70;99.90;;;;;;4997366;28;20402;-77
2023/01/14 01:56:46;;;;;;;;;;;9.70;99.90;;;;;;4997365;28;19914;-75
2023/01/14 01:59:13;;;;;;;;;;;9.70;99.90;;;;;;4997032;28;19913;-74
2023/01/14 02:01:40;;;;;;;;;;;9.70;99.90;;;;;;4997049;28;20362;-76
2023/01/14 02:04:06;;;;;;;;;;;9.70;99.90;;;;;;4996671;28;19916;-79
2023/01/14 02:06:31;;;;;;;;;;;9.80;99.90;;;;;;4996941;28;19914;-73
2023/01/14 02:08:57;;;;;;;;;;;9.80;99.90;;;;;;4996870;28;20370;-74
2023/01/14 02:11:31;;;;;;;;;;;9.80;99.90;;;;;;4996852;28;19964;-75
2023/01/14 02:14:15;;;;;;;;;;;9.80;99.90;;;;;;4996776;28;19952;-74
2023/01/14 02:16:59;;;;;;;;;;;9.80;99.90;;;;;;4996690;28;20385;-75
2023/01/14 02:19:30;;;;;;;;;;;9.80;99.90;;;;;;4995412;28;19914;-75
2023/01/14 02:22:26;;;;;;;;;;;9.90;99.90;;;;;;4996501;28;19918;-76
2023/01/14 02:25:01;;;;;;;;;;;9.90;99.90;;;;;;4996929;28;20008;-77
2023/01/14 02:27:38;;;;;;;;;;;10.00;99.90;;;;;;4996522;28;19917;-75
2023/01/14 02:30:07;;;;;;;;;;;9.90;99.90;;;;;;4996491;28;19910;-75
2023/01/14 02:32:35;;;;;;;;;;;9.90;99.90;;;;;;4996435;28;19917;-76
2023/01/14 02:35:00;;;;;;;;;;;9.90;99.90;;;;;;4996320;28;19922;-73
2023/01/14 02:37:27;;;;;;;;;;;9.90;99.90;;;;;;4996364;28;19917;-77
2023/01/14 02:40:11;;;;;;;;;;;9.90;99.90;;;;;;4996593;28;20289;-78
2023/01/14 02:45:25;;;;;;;;;;;9.90;99.90;;;;;;4995989;28;20404;-73
2023/01/14 02:47:50;;;;;;;;;;;9.90;99.90;;;;;;4996468;28;19925;-74
2023/01/14 02:50:16;;;;;;;;;;;9.80;99.90;;;;;;4995987;28;19914;-73
2023/01/14 02:52:42;;;;;;;;;;;9.80;99.90;;;;;;4996385;28;19917;-77
2023/01/14 02:55:27;;;;;;;;;;;9.80;99.90;;;;;;4995940;28;19914;-75
2023/01/14 02:58:13;;;;;;;;;;;9.90;99.90;;;;;;4995979;28;20005;-76
2023/01/14 03:00:59;;;;;;;;;;;10.10;99.90;;;;;;4965899;28;19910;-72
2023/01/14 03:03:29;;;;;;;;;;;10.00;99.90;;;;;;4965697;28;20350;-74
2023/01/14 03:06:01;;;;;;;;;;;10.00;99.90;;;;;;4996168;28;19910;-72
2023/01/14 03:08:32;;;;;;;;;;;10.00;99.90;;;;;;4994531;28;19909;-75
2023/01/14 03:11:02;;;;;;;;;;;10.00;99.90;;;;;;4994224;28;20271;-76
2023/01/14 03:13:29;;;;;;;;;;;10.00;99.90;;;;;;4996006;28;20374;-74
2023/01/14 03:15:54;;;;;;;;;;;10.00;99.90;;;;;;4995883;28;19914;-77
2023/01/14 03:18:30;;;;;;;;;;;10.00;99.90;;;;;;4995847;28;20048;-75
2023/01/14 03:20:59;;;;;;;;;;;10.00;99.90;;;;;;4995485;28;19910;-78
2023/01/14 03:23:25;;;;;;;;;;;10.10;99.90;;;;;;4995283;28;19924;-72
2023/01/14 03:25:52;;;;;;;;;;;10.10;99.90;;;;;;4995961;28;19914;-74
2023/01/14 03:28:20;;;;;;;;;;;10.20;99.90;;;;;;4995351;28;19910;-73
2023/01/14 03:30:48;;;;;;;;;;;10.20;99.90;;;;;;4995647;28;19910;-74
2023/01/14 03:33:21;;;;;;;;;;;10.30;99.90;;;;;;4995323;28;20362;-75
2023/01/14 03:35:47;;;;;;;;;;;10.30;99.90;;;;;;4995528;28;19924;-74
2023/01/14 03:38:16;;;;;;;;;;;10.30;99.90;;;;;;4995268;28;19914;-76
2023/01/14 03:40:43;;;;;;;;;;;10.30;99.90;;;;;;4995167;28;19996;-74
2023/01/14 03:43:23;;;;;;;;;;;10.30;99.90;;;;;;4995180;28;19916;-72
2023/01/14 03:45:49;;;;;;;;;;;10.40;99.90;;;;;;4995661;28;19917;-72
2023/01/14 03:48:15;;;;;;;;;;;10.50;99.90;;;;;;4995029;28;19910;-75
2023/01/14 03:50:48;;;;;;;;;;;10.50;99.90;;;;;;4995267;28;20337;-75
2023/01/14 03:53:24;;;;;;;;;;;10.60;99.90;;;;;;4994978;28;20378;-77
2023/01/14 03:56:25;;;;;;;;;;;10.70;99.90;;;;;;4995465;28;19949;-74
2023/01/14 03:58:55;;;;;;;;;;;10.80;99.90;;;;;;4935037;29;20403;-78
2023/01/14 04:01:41;;;;;;;;;;;11.00;99.90;;;;;;4984100;28;19914;-72
2023/01/14 04:04:07;;;;;;;;;;;11.10;99.90;;;;;;4994254;28;19910;-75
2023/01/14 04:06:33;;;;;;;;;;;11.20;99.90;;;;;;4995037;28;19917;-74
2023/01/14 04:08:58;;;;;;;;;;;11.30;99.90;;;;;;4994674;28;19979;-76
2023/01/14 04:11:24;;;;;;;;;;;11.10;99.90;;;;;;4994670;28;19917;-77
2023/01/14 04:16:44;;;;;;;;;;;11.40;99.90;;;;;;4942277;28;20410;-76
2023/01/14 04:19:09;;;;;;;;;;;11.50;99.90;;;;;;4993116;28;19917;-76
2023/01/14 04:21:35;;;;;;;;;;;11.50;99.90;;;;;;4994456;28;19917;-72
2023/01/14 04:24:00;;;;;;;;;;;11.50;99.90;;;;;;4993049;28;20004;-76
2023/01/14 04:26:28;;;;;;;;;;;11.60;99.90;;;;;;4994444;28;19992;-80
2023/01/14 04:28:54;;;;;;;;;;;11.50;99.90;;;;;;4994707;28;20317;-76
2023/01/14 04:31:19;;;;;;;;;;;11.50;99.90;;;;;;4994408;28;20325;-76
2023/01/14 04:33:45;;;;;;;;;;;11.60;99.90;;;;;;4994688;28;19910;-78
2023/01/14 04:36:10;;;;;;;;;;;11.70;99.90;;;;;;4994283;28;19922;-76
2023/01/14 04:38:36;;;;;;;;;;;11.80;99.90;;;;;;4994324;28;19909;-77
2023/01/14 04:41:01;;;;;;;;;;;11.80;99.90;;;;;;4994379;28;19960;-74
2023/01/14 04:43:27;;;;;;;;;;;11.80;99.90;;;;;;4994584;28;20346;-76
2023/01/14 04:45:53;;;;;;;;;;;11.80;99.90;;;;;;4994338;28;19917;-78
2023/01/14 04:48:19;;;;;;;;;;;11.80;99.90;;;;;;4994597;28;20375;-77
2023/01/14 04:50:46;;;;;;;;;;;11.80;99.90;;;;;;4994275;28;19933;-77
2023/01/14 04:53:12;;;;;;;;;;;11.70;99.90;;;;;;4994529;28;19992;-75
2023/01/14 04:55:38;;;;;;;;;;;11.70;99.90;;;;;;4994112;28;20382;-73
2023/01/14 04:58:04;;;;;;;;;;;11.80;99.90;;;;;;4994218;28;19956;-76
2023/01/14 05:00:30;;;;;;;;;;;11.70;99.90;;;;;;4994195;28;19913;-74
2023/01/14 05:02:55;;;;;;;;;;;11.70;99.90;;;;;;4994123;28;19910;-78
2023/01/14 05:05:21;;;;;;;;;;;11.80;99.90;;;;;;4994707;28;20384;-78
2023/01/14 05:07:46;;;;;;;;;;;11.90;99.90;;;;;;4997995;28;20000;-73
2023/01/14 05:10:12;;;;;;;;;;;11.80;99.90;;;;;;4997971;28;19916;-74
2023/01/14 05:12:37;;;;;;;;;;;11.70;99.90;;;;;;4998189;28;20326;-77
2023/01/14 05:15:03;;;;;;;;;;;11.80;99.90;;;;;;4997831;28;20329;-74
2023/01/14 05:17:29;;;;;;;;;;;11.80;99.90;;;;;;4998425;28;20266;-74
2023/01/14 05:19:54;;;;;;;;;;;11.80;99.90;;;;;;4997764;28;19921;-76
2023/01/14 05:22:20;;;;;;;;;;;11.80;99.90;;;;;;4997822;28;19910;-74
2023/01/14 05:24:45;;;;;;;;;;;11.80;99.90;;;;;;4997602;28;20279;-72
2023/01/14 05:27:11;;;;;;;;;;;11.90;99.90;;;;;;4997631;28;19964;-74
2023/01/14 05:29:38;;;;;;;;;;;11.70;99.90;;;;;;4997639;28;19910;-76
2023/01/14 05:32:04;;;;;;;;;;;11.80;99.90;;;;;;4996388;28;19933;-74
2023/01/14 05:34:30;;;;;;;;;;;11.90;99.90;;;;;;4996208;28;20378;-73
2023/01/14 05:36:56;;;;;;;;;;;12.00;99.90;;;;;;4998073;28;19910;-77
2023/01/14 05:39:22;;;;;;;;;;;12.00;99.90;;;;;;4997469;28;20017;-79
2023/01/14 05:47:15;;;;;;;;;;;12.00;99.90;;;;;;4997885;28;19933;-76
2023/01/14 05:49:41;;;;;;;;;;;11.90;99.90;;;;;;4997258;28;19913;-74
2023/01/14 05:52:06;;;;;;;;;;;12.00;99.90;;;;;;4997194;28;19913;-75
2023/01/14 05:54:32;;;;;;;;;;;12.10;99.90;;;;;;4997419;28;19957;-75
2023/01/14 05:56:57;;;;;;;;;;;12.00;99.90;;;;;;4997136;28;20393;-76
2023/01/14 05:59:23;;;;;;;;;;;12.00;99.90;;;;;;4997393;28;20406;-77
2023/01/14 06:07:17;;;;;;;;;;;12.10;99.90;;;;;;4996971;28;20392;-77
2023/01/14 06:09:42;;;;;;;;;;;12.00;99.90;;;;;;4997189;28;19910;-74
2023/01/14 06:12:08;;;;;;;;;;;12.00;99.90;;;;;;4996810;28;20440;-75
2023/01/14 06:14:33;;;;;;;;;;;12.00;99.90;;;;;;4996691;28;19910;-72
2023/01/14 06:17:02;;;;;;;;;;;12.10;99.90;;;;;;4996416;28;19986;-76
2023/01/14 06:19:28;;;;;;;;;;;12.00;99.90;;;;;;4996596;28;20370;-75
2023/01/14 06:21:53;;;;;;;;;;;11.90;99.90;;;;;;4996609;28;19909;-77
2023/01/14 06:24:19;;;;;;;;;;;11.90;99.90;;;;;;4996449;28;19925;-76
2023/01/14 06:26:44;;;;;;;;;;;11.80;99.90;;;;;;4997162;28;19913;-73
2023/01/14 06:29:11;;;;;;;;;;;11.70;99.90;;;;;;4996827;28;19909;-73
2023/01/14 06:31:37;;;;;;;;;;;11.70;99.90;;;;;;4996796;28;20259;-73
2023/01/14 06:34:03;;;;;;;;;;;11.80;99.90;;;;;;4996453;28;20366;-75
2023/01/14 06:36:29;;;;;;;;;;;11.90;99.90;;;;;;4996362;28;19917;-75
2023/01/14 06:38:54;;;;;;;;;;;12.00;99.90;;;;;;4996403;28;20012;-78
2023/01/14 06:41:20;;;;;;;;;;;12.00;99.90;;;;;;4996379;28;19917;-74
2023/01/14 06:43:46;;;;;;;;;;;12.00;99.90;;;;;;4996570;28;19910;-76
2023/01/14 06:46:12;;;;;;;;;;;12.00;99.90;;;;;;4996232;28;19918;-75
2023/01/14 06:48:38;;;;;;;;;;;11.90;99.90;;;;;;4996503;28;19910;-75
2023/01/14 06:51:04;;;;;;;;;;;12.00;99.90;;;;;;4996162;28;19917;-75
2023/01/14 06:53:30;;;;;;;;;;;12.00;99.90;;;;;;4996132;28;20357;-74
2023/01/14 06:55:59;;;;;;;;;;;11.90;99.90;;;;;;4996519;28;19914;-75
2023/01/14 06:58:24;;;;;;;;;;;11.90;99.90;;;;;;4995973;28;19910;-78
2023/01/14 07:00:53;;;;;;;;;;;12.00;99.90;;;;;;4996488;28;19917;-75
2023/01/14 07:03:19;;;;;;;;;;;12.10;99.90;;;;;;4994656;28;19941;-77
2023/01/14 07:05:45;;;;;;;;;;;11.90;99.90;;;;;;4995887;28;20453;-76
2023/01/14 07:08:11;;;;;;;;;;;11.90;99.90;;;;;;4996121;28;19976;-74
2023/01/14 07:10:36;;;;;;;;;;;11.90;99.90;;;;;;4995739;28;19918;-75
2023/01/14 07:13:02;;;;;;;;;;;12.00;99.90;;;;;;4994487;28;20370;-76
2023/01/14 07:15:27;;;;;;;;;;;12.00;99.90;;;;;;4996144;28;20362;-75
2023/01/14 07:17:53;;;;;;;;;;;12.00;99.90;;;;;;4995609;28;19917;-79
2023/01/14 07:20:19;;;;;;;;;;;12.00;99.90;;;;;;4995729;28;20333;-74
2023/01/14 07:22:45;;;;;;;;;;;12.00;99.90;;;;;;4995900;28;19914;-73
2023/01/14 07:25:11;;;;;;;;;;;12.00;99.90;;;;;;4995789;28;20360;-75
2023/01/14 07:27:36;;;;;;;;;;;12.00;99.90;;;;;;4994166;28;19910;-75
2023/01/14 07:30:02;;;;;;;;;;;11.90;99.90;;;;;;4993875;28;19914;-75
2023/01/14 07:32:28;;;;;;;;;;;11.90;99.90;;;;;;4995291;28;19922;-74
2023/01/14 07:34:53;;;;;;;;;;;11.90;99.90;;;;;;4995245;28;20074;-75
2023/01/14 07:37:19;;;;;;;;;;;11.90;99.90;;;;;;4995531;28;19910;-76
2023/01/14 07:39:44;;;;;;;;;;;11.90;99.90;;;;;;4993951;28;19911;-76
2023/01/14 07:42:10;;;;;;;;;;;11.90;99.90;;;;;;4995745;28;19910;-78
2023/01/14 07:44:36;;;;;;;;;;;11.90;99.90;;;;;;4995408;28;19910;-77
2023/01/14 07:47:01;;;;;;;;;;;11.90;99.90;;;;;;4995105;28;19918;-75
2023/01/14 07:49:27;;;;;;;;;;;11.80;99.90;;;;;;4995301;28;19910;-72
2023/01/14 07:51:53;;;;;;;;;;;11.80;99.90;;;;;;4995247;28;19917;-78
2023/01/14 07:54:18;;;;;;;;;;;11.80;99.90;;;;;;4994934;28;19910;-76
2023/01/14 07:56:45;;;;;;;;;;;11.80;99.90;;;;;;4994873;28;19941;-78
2023/01/14 07:59:10;;;;;;;;;;;11.80;99.90;;;;;;4994920;28;19957;-75
2023/01/14 08:01:36;;;;;;;;;;;11.70;99.90;;;;;;4995435;28;19909;-74
2023/01/14 08:04:02;;;;;;;;;;;11.80;99.90;;;;;;4994805;28;19913;-74
2023/01/14 08:06:28;;;;;;;;;;;11.70;99.90;;;;;;4995354;28;19959;-76
2023/01/14 08:08:53;;;;;;;;;;;11.60;99.90;;;;;;4993480;28;19910;-74
2023/01/14 08:11:19;;;;;;;;;;;11.50;99.90;;;;;;4994935;28;20347;-74
2023/01/14 08:13:44;;;;;;;;;;;11.40;99.90;;;;;;4994658;28;19909;-76
2023/01/14 08:16:10;;;;;;;;;;;11.40;99.90;;;;;;4994844;28;20008;-74
2023/01/14 08:18:36;;;;;;;;;;;11.40;99.90;;;;;;4994638;28;19910;-73
2023/01/14 08:21:03;;;;;;;;;;;11.40;99.90;;;;;;4994512;28;19914;-76
2023/01/14 08:23:29;;;;;;;;;;;11.40;99.90;;;;;;4994317;28;20367;-74
2023/01/14 08:25:59;;;;;;;;;;;11.40;99.90;;;;;;4994539;28;19917;-76
2023/01/14 08:28:24;;;;;;;;;;;11.50;99.90;;;;;;4994457;28;19910;-75
2023/01/14 08:30:50;;;;;;;;;;;11.50;99.90;;;;;;4994421;28;19910;-77
2023/01/14 08:33:15;;;;;;;;;;;11.50;99.90;;;;;;4993118;28;19914;-77
2023/01/14 08:35:41;;;;;;;;;;;11.50;99.90;;;;;;4994387;28;19921;-74
2023/01/14 08:38:07;;;;;;;;;;;11.50;99.90;;;;;;4994611;28;20004;-73
2023/01/14 08:40:33;;;;;;;;;;;11.60;99.90;;;;;;4993735;28;20013;-76
2023/01/14 08:42:58;;;;;;;;;;;11.60;99.90;;;;;;4994303;28;20354;-75
2023/01/14 08:45:24;;;;;;;;;;;11.60;99.90;;;;;;4994316;28;19948;-76
2023/01/14 08:47:49;;;;;;;;;;;11.50;99.90;;;;;;4994551;28;20389;-78
2023/01/14 08:50:15;;;;;;;;;;;11.60;99.90;;;;;;4994202;28;19910;-78
2023/01/14 08:52:40;;;;;;;;;;;11.50;99.90;;;;;;4994261;28;20329;-77
2023/01/14 08:55:06;;;;;;;;;;;11.60;99.90;;;;;;4994431;28;19914;-76
2023/01/14 08:57:31;;;;;;;;;;;11.60;99.90;;;;;;4994164;28;20000;-75
2023/01/14 08:59:57;;;;;;;;;;;11.60;99.90;;;;;;4994432;28;19917;-76
2023/01/14 09:02:22;;;;;;;;;;;11.60;99.90;;;;;;4994085;28;19913;-75
2023/01/14 09:04:48;;;;;;;;;;;11.70;99.90;;;;;;4994378;28;19982;-77
2023/01/14 09:18:10;;;;;;;;;;;11.70;99.90;;;;;;4994079;28;20017;-77
2023/01/14 09:20:37;;;;;;;;;;;11.70;99.90;;;;;;4993894;28;19913;-78
2023/01/14 09:23:04;;;;;;;;;;;11.70;99.90;;;;;;4993779;28;20386;-76
2023/01/14 09:25:29;;;;;;;;;;;11.80;99.90;;;;;;4993889;28;19957;-75
2023/01/14 09:27:55;;;;;;;;;;;11.80;99.90;;;;;;4994446;28;19925;-80
2023/01/14 09:30:21;;;;;;;;;;;11.80;99.90;;;;;;4993908;28;20000;-73
2023/01/14 09:32:46;;;;;;;;;;;11.80;99.90;;;;;;4994481;28;19917;-74
2023/01/14 09:35:12;;;;;;;;;;;11.80;99.90;;;;;;4993787;28;19918;-75
2023/01/14 09:37:37;;;;;;;;;;;11.80;99.90;;;;;;4994096;28;19910;-75
2023/01/14 09:40:03;;;;;;;;;;;11.80;99.90;;;;;;4993759;28;20286;-75
2023/01/14 09:42:32;;;;;;;;;;;11.90;99.90;;;;;;4993692;28;19953;-72
2023/01/14 09:45:03;;;;;;;;;;;11.90;99.90;;;;;;4994292;28;20355;-70
2023/01/14 09:47:28;;;;;;;;;;;11.80;99.90;;;;;;4993623;28;19910;-74
2023/01/14 09:49:54;;;;;;;;;;;11.70;99.90;;;;;;4993954;28;19960;-70
2023/01/14 09:52:38;;;;;;;;;;;11.70;99.90;;;;;;4995374;28;19910;-74
2023/01/14 09:55:12;;;;;;;;;;;11.80;99.90;;;;;;4997404;28;20282;-72
2023/01/14 09:57:40;;;;;;;;;;;11.80;99.90;;;;;;4997423;28;19998;-73
2023/01/14 10:00:15;;;;;;;;;;;11.80;99.90;;;;;;4997021;28;19910;-72
2023/01/14 10:02:40;;;;;;;;;;;11.90;99.90;;;;;;4997308;28;19910;-74
2023/01/14 10:05:29;;;;;;;;;;;11.90;99.90;;;;;;4997014;28;19960;-74
2023/01/14 10:08:01;;;;;;;;;;;11.90;99.90;;;;;;4985220;28;19933;-70
2023/01/14 10:10:31;;;;;;;;;;;11.90;99.90;;;;;;4996827;28;19976;-69
2023/01/14 10:12:58;;;;;;;;;;;11.90;99.90;;;;;;4997420;28;19909;-70
2023/01/14 10:15:24;;;;;;;;;;;;;;;;;;4996742;28;20387;-69
2023/01/14 10:17:50;;;;;;;;;;;;;;;;;;4997373;28;19910;-69
2023/01/14 10:20:16;;;;;;;;;;;;;;;;;;4996683;28;19909;-69
2023/01/14 10:22:42;;;;;;;;;;;;;;;;;;4996550;28;19921;-69
2023/01/14 10:25:19;;;;;;;;;;;11.90;99.90;;;;;;4997002;28;19910;-69
2023/01/14 10:27:45;;;;;;;;;;;;;;;;;;4996615;28;19917;-70
2023/01/14 10:30:10;;;;;;;;;;;;;;;;;;4996521;28;19910;-75
2023/01/14 10:32:36;;;;;;;;;;;;;;;;;;4996694;28;20277;-76
2023/01/14 10:35:02;;;;;;;;;;;;;;;;;;4996682;28;19925;-73
2023/01/14 10:37:29;;;;;;;;;;;;;;;;;;4996348;28;19909;-75
2023/01/14 10:39:55;;;;;;;;;;;12.00;99.90;;;;;;4996335;28;19916;-72
2023/01/14 10:42:29;;;;;;;;;;;12.00;99.90;;;;;;4996314;28;19916;-73
2023/01/14 10:44:56;;;;;;;;;;;12.00;99.90;;;;;;4996319;28;19909;-69
2023/01/14 10:47:21;;;;;;;;;;;;;;;;;;4996415;28;19914;-78
2023/01/14 10:49:47;;;;;;;;;;;;;;;;;;4996194;28;19933;-73
2023/01/14 10:52:13;;;;;;;;;;;;;;;;;;4996689;28;19978;-75
2023/01/14 10:54:54;;;;;;;;;;;12.00;99.90;;;;;;4996308;28;19913;-73
2023/01/14 10:57:20;;;;;;;;;;;12.20;99.90;;;;;;4996799;28;19910;-72
2023/01/14 10:59:52;;;;;;;;;;;12.20;99.90;;;;;;4996312;28;19956;-82
2023/01/14 11:02:26;;;;;;;;;;;12.20;99.90;;;;;;4994618;28;20379;-71
2023/01/14 11:04:51;;;;;;;;;;;12.20;99.90;;;;;;4995585;28;19914;-71
2023/01/14 11:07:24;;;;;;;;;;;12.30;99.90;;;;;;4995903;28;19963;-71
2023/01/14 11:09:49;;;;;;;;;;;12.40;99.90;;;;;;4996152;28;19910;-71
2023/01/14 11:12:27;;;;;;;;;;;12.40;99.90;;;;;;4995732;28;19909;-69
2023/01/14 11:14:53;;;;;;;;;;;12.40;99.90;;;;;;4996243;28;19921;-70
2023/01/14 11:17:19;;;;;;;;;;;;;;;;;;4995884;28;19909;-70
2023/01/14 11:19:46;;;;;;;;;;;;;;;;;;4994806;28;20213;-68
2023/01/14 11:22:12;;;;;;;;;;;;;;;;;;4995897;28;19964;-72
2023/01/14 11:24:38;;;;;;;;;;;;;;;;;;4995154;28;20293;-73
2023/01/14 11:27:04;;;;;;;;;;;;;;;;;;4995537;28;19945;-70
2023/01/14 11:29:30;;;;;;;;;;;;;;;;;;4995425;28;19920;-71
2023/01/14 11:31:56;;;;;;;;;;;;;;;;;;4995615;28;19933;-71
2023/01/14 11:34:22;;;;;;;;;;;;;;;;;;4995332;28;20374;-70
2023/01/14 11:36:47;;;;;;;;;;;;;;;;;;4995230;28;19918;-69
2023/01/14 11:39:13;;;;;;;;;;;;;;;;;;4994011;28;19965;-69
2023/01/14 11:41:39;;;;;;;;;;;;;;;;;;4995772;28;20314;-70
2023/01/14 11:44:05;;;;;;;;;;;;;;;;;;4995476;28;20000;-70
2023/01/14 11:46:36;;;;;;;;;;;;;;;;;;4995380;28;19917;-73
2023/01/14 11:49:02;;;;;;;;;;;;;;;;;;4995419;28;20294;-69
2023/01/14 11:51:29;;;;;;;;;;;;;;;;;;4995337;28;19964;-70
2023/01/14 11:53:56;;;;;;;;;;;;;;;;;;4995037;28;19913;-71
2023/01/14 11:56:22;;;;;;;;;;;;;;;;;;4993570;28;19961;-69
2023/01/14 11:58:48;;;;;;;;;;;;;;;;;;4994962;28;19910;-72
2023/01/14 12:01:14;;;;;;;;;;;;;;;;;;4995200;28;19945;-69
2023/01/14 12:03:39;;;;;;;;;;;;;;;;;;4994894;28;19909;-70
2023/01/14 12:06:05;;;;;;;;;;;;;;;;;;4995078;28;20297;-68
2023/01/14 12:08:31;;;;;;;;;;;;;;;;;;4995089;28;19936;-71
2023/01/14 12:10:59;;;;;;;;;;;;;;;;;;4994826;28;19910;-71
2023/01/14 12:18:54;;;;;;;;;;;;;;;;;;4994653;28;19917;-71
2023/01/14 12:21:20;;;;;;;;;;;;;;;;;;4994583;28;19910;-69
2023/01/14 12:23:46;;;;;;;;;;;;;;;;;;4994632;28;20333;-70
2023/01/14 12:26:12;;;;;;;;;;;;;;;;;;4994829;28;19964;-70
2023/01/14 12:28:37;;;;;;;;;;;;;;;;;;4994527;28;19989;-68
2023/01/14 12:31:03;;;;;;;;;;;;;;;;;;4994802;28;19909;-71
2023/01/14 12:33:30;;;;;;;;;;;;;;;;;;4994742;28;20440;-70
2023/01/14 12:35:55;;;;;;;;;;;;;;;;;;4994870;28;19925;-73
2023/01/14 12:46:35;;;;;;;;;;;;;;;;;;4994066;28;19916;-70
2023/01/14 12:49:01;;;;;;;;;;;;;;;;;;4993051;28;19910;-72
2023/01/14 12:51:27;;;;;;;;;;;;;;;;;;4994298;28;20047;-69
2023/01/14 12:53:52;;;;;;;;;;;;;;;;;;4994326;28;19910;-69
2023/01/14 12:56:18;;;;;;;;;;;;;;;;;;4994482;28;19913;-72
2023/01/14 12:58:44;;;;;;;;;;;;;;;;;;4994514;28;19957;-71
2023/01/14 13:01:12;;;;;;;;;;;;;;;;;;4994168;28;19917;-69
2023/01/14 13:03:38;;;;;;;;;;;;;;;;;;4994115;28;19941;-69
2023/01/14 13:06:04;;;;;;;;;;;;;;;;;;4994146;28;19917;-70
2023/01/14 13:08:30;;;;;;;;;;;;;;;;;;4994408;28;19914;-70
2023/01/14 13:10:56;;;;;;;;;;;;;;;;;;4994122;28;19992;-69
2023/01/14 13:13:21;;;;;;;;;;;;;;;;;;4994097;28;19983;-71
2023/01/14 13:15:47;;;;;;;;;;;;;;;;;;4994039;28;19921;-69
2023/01/14 13:18:13;;;;;;;;;;;;;;;;;;4994071;28;19909;-70
2023/01/14 13:20:39;;;;;;;;;;;;;;;;;;4994112;28;19910;-72
2023/01/14 13:23:05;;;;;;;;;;;;;;;;;;4994212;28;19917;-70
2023/01/14 13:25:32;;;;;;;;;;;;;;;;;;4993958;28;19996;-71
2023/01/14 13:27:59;;;;;;;;;;;;;;;;;;4996787;28;20041;-71
2023/01/14 13:30:24;;;;;;;;;;;;;;;;;;4997706;28;20481;-71
2023/01/14 13:32:50;;;;;;;;;;;;;;;;;;4997641;28;19910;-73
2023/01/14 13:35:16;;;;;;;;;;;;;;;;;;4997868;28;19917;-71
2023/01/14 13:37:43;;;;;;;;;;;;;;;;;;4997813;28;19914;-70
2023/01/14 13:40:08;;;;;;;;;;;;;;;;;;4997505;28;19937;-71
2023/01/14 13:42:38;;;;;;;;;;;;;;;;;;4997760;28;19914;-69
2023/01/14 13:45:04;;;;;;;;;;;;;;;;;;4997673;28;19910;-71
2023/01/14 13:47:30;;;;;;;;;;;;;;;;;;4997687;28;20421;-69
2023/01/14 13:49:56;;;;;;;;;;;;;;;;;;4997352;28;19917;-69
2023/01/14 13:52:22;;;;;;;;;;;;;;;;;;4997558;28;19914;-71
2023/01/14 13:54:48;;;;;;;;;;;;;;;;;;4997136;28;19910;-70
2023/01/14 13:57:13;;;;;;;;;;;;;;;;;;4997519;28;19910;-69
2023/01/14 13:59:39;;;;;;;;;;;;;;;;;;4997162;28;19972;-70
2023/01/14 14:02:05;;;;;;;;;;;;;;;;;;4997454;28;19933;-71
2023/01/14 14:04:31;;;;;;;;;;;;;;;;;;4997104;28;19914;-70
2023/01/14 14:06:57;;;;;;;;;;;;;;;;;;4997346;28;19964;-72
2023/01/14 14:09:23;;;;;;;;;;;;;;;;;;4997254;28;20325;-71
2023/01/14 14:11:49;;;;;;;;;;;;;;;;;;4997223;28;19910;-70
2023/01/14 14:14:15;;;;;;;;;;;;;;;;;;4996881;28;19909;-68
2023/01/14 14:16:41;;;;;;;;;;;;;;;;;;4996803;28;19914;-72
2023/01/14 14:19:07;;;;;;;;;;;;;;;;;;4996829;28;19996;-71
2023/01/14 14:21:33;;;;;;;;;;;;;;;;;;4996687;28;19960;-71
2023/01/14 14:23:59;;;;;;;;;;;;;;;;;;4996577;28;20432;-69
2023/01/14 14:26:25;;;;;;;;;;;;;;;;;;4996705;28;20370;-69
2023/01/14 14:28:51;;;;;;;;;;;;;;;;;;4997194;28;19917;-71
2023/01/14 14:31:17;;;;;;;;;;;;;;;;;;4996622;28;20358;-71
2023/01/14 14:33:43;;;;;;;;;;;;;;;;;;4996854;28;19968;-71
2023/01/14 14:36:09;;;;;;;;;;;;;;;;;;4996428;28;19957;-70
2023/01/14 14:38:35;;;;;;;;;;;;;;;;;;4996047;28;20401;-69
2023/01/14 14:41:01;;;;;;;;;;;;;;;;;;4996449;28;20385;-71
2023/01/14 14:43:27;;;;;;;;;;;;;;;;;;4996387;28;19910;-71
2023/01/14 14:45:53;;;;;;;;;;;;;;;;;;4996925;28;20273;-72
2023/01/14 14:48:19;;;;;;;;;;;;;;;;;;4996249;28;19937;-72
2023/01/14 14:50:44;;;;;;;;;;;;;;;;;;4996206;28;19917;-72
2023/01/14 14:53:10;;;;;;;;;;;;;;;;;;4996196;28;19910;-71
2023/01/14 14:55:36;;;;;;;;;;;;;;;;;;4996639;28;20409;-72
2023/01/14 14:58:02;;;;;;;;;;;;;;;;;;4996407;28;19914;-70
2023/01/14 15:00:28;;;;;;;;;;;;;;;;;;4996136;28;20352;-71
2023/01/14 15:02:54;;;;;;;;;;;;;;;;;;4996271;28;19959;-73
2023/01/14 15:05:20;;;;;;;;;;;;;;;;;;4994668;28;20278;-70
2023/01/14 15:07:46;;;;;;;;;;;;;;;;;;4995949;28;19909;-71
2023/01/14 15:10:12;;;;;;;;;;;;;;;;;;4996160;28;19914;-70
2023/01/14 15:12:37;;;;;;;;;;;;;;;;;;4995833;28;20025;-71
2023/01/14 15:15:03;;;;;;;;;;;;;;;;;;4995710;28;19910;-71
2023/01/14 15:17:29;;;;;;;;;;;;;;;;;;4995773;28;19917;-71
2023/01/14 15:19:55;;;;;;;;;;;;;;;;;;4995897;28;19922;-70
2023/01/14 15:22:21;;;;;;;;;;;;;;;;;;4995683;28;20333;-69
2023/01/14 15:24:51;;;;;;;;;;;;;;;;;;4996269;28;20381;-69
2023/01/14 15:27:18;;;;;;;;;;;;;;;;;;4995517;28;19910;-70
2023/01/14 15:29:45;;;;;;;;;;;;;;;;;;4995750;28;20251;-72
2023/01/14 15:32:10;;;;;;;;;;;;;;;;;;4995421;28;19969;-71
2023/01/14 15:34:36;;;;;;;;;;;;;;;;;;4995430;28;19949;-70
2023/01/14 15:37:03;;;;;;;;;;;;;;;;;;4995794;28;19985;-70
2023/01/14 15:39:29;;;;;;;;;;;;;;;;;;4995274;28;19955;-71
2023/01/14 15:44:39;;;;;;;;;;;;;;;;;;4995226;28;20414;-71